Time;durP1;ratioP1;P1;durP2;ratioP2;P2;SDS_P1;SDS_P2;PMS_P1;PMS_P2;Temp;Humidity;BMP_temperature;BMP_pressure;BME280_temperature;BME280_humidity;BME280_pressure;Samples;Min_cycle;Max_cycle;Signal;HPM_P1;HPM_P2
2023/02/15 00:00:12;;;;;;;;;;;;;;;7.96;41.35;100003.34;4973321;28;19926;-73
2023/02/15 00:02:37;;;;;;;;;;;;;;;7.95;41.79;100005.09;4974698;28;19924;-73
2023/02/15 00:05:02;;;;;;;;;;;;;;;7.97;41.56;100015.44;4958322;28;19918;-73
2023/02/15 00:07:28;;;;;;;;;;;;;;;7.99;41.92;100008.41;4991816;28;19918;-74
2023/02/15 00:09:53;;;;;;;;;;;;;;;8.02;41.19;100007.41;4974440;28;19989;-74
2023/02/15 00:12:18;;;;;;;;;;;;;;;8.04;41.33;100011.63;4958192;28;19928;-73
2023/02/15 00:14:43;;;;;;;;;;;;;;;8.06;41.46;100009.78;4972498;28;19918;-73
2023/02/15 00:17:09;;;;;;;;;;;;;;;8.10;41.90;100002.72;4973987;28;19926;-73
2023/02/15 00:19:34;;;;;;;;;;;;;;;8.13;41.92;100002.56;4973916;28;19917;-73
2023/02/15 00:22:00;;;;;;;;;;;;;;;8.17;41.73;100009.31;4971872;28;20489;-73
2023/02/15 00:24:25;;;;;;;;;;;;;;;8.20;41.31;100003.13;4974322;28;20029;-73
2023/02/15 00:26:50;;;;;;;;;;;;;;;8.25;41.39;100006.34;4973241;28;19928;-74
2023/02/15 00:29:16;;;;;;;;;;;;;;;8.27;41.39;99997.59;4957698;28;19957;-73
2023/02/15 00:31:41;;;;;;;;;;;;;;;8.28;41.46;99993.22;4974114;28;20408;-74
2023/02/15 00:34:11;;;;;;;;;;;;;;;8.30;41.38;99988.78;4982547;28;19972;-75
2023/02/15 00:36:36;;;;;;;;;;;;;;;8.30;40.94;99987.03;4982302;28;20028;-74
2023/02/15 00:39:02;;;;;;;;;;;;;;;8.30;41.33;99991.38;4981846;28;20036;-74
2023/02/15 00:41:27;;;;;;;;;;;;;;;8.29;41.24;99987.09;4977558;28;19995;-74
2023/02/15 00:43:52;;;;;;;;;;;;;;;8.26;40.81;99987.25;4986093;28;20349;-74
2023/02/15 00:46:18;;;;;;;;;;;;;;;8.25;41.10;99993.34;4975555;28;19932;-73
2023/02/15 00:48:43;;;;;;;;;;;;;;;8.23;40.89;99987.38;4977776;28;20377;-74
2023/02/15 00:51:08;;;;;;;;;;;;;;;8.21;41.11;99989.22;4986068;28;20020;-74
2023/02/15 00:53:33;;;;;;;;;;;;;;;8.21;40.88;99979.66;4961543;28;19926;-74
2023/02/15 00:55:59;;;;;;;;;;;;;;;8.19;40.83;99978.88;4961245;28;20008;-74
2023/02/15 00:58:24;;;;;;;;;;;;;;;8.17;41.25;99974.66;4985797;28;19924;-74
2023/02/15 01:00:50;;;;;;;;;;;;;;;8.17;41.00;99972.91;4977667;28;20391;-74
2023/02/15 01:03:16;;;;;;;;;;;;;;;8.15;41.15;99974.72;4994916;28;19918;-74
2023/02/15 01:05:41;;;;;;;;;;;;;;;8.15;41.39;99978.16;4985116;28;20360;-74
2023/02/15 01:08:06;;;;;;;;;;;;;;;8.13;41.29;99972.19;4986022;28;20012;-74
2023/02/15 01:10:32;;;;;;;;;;;;;;;8.12;41.34;99975.72;4977552;28;19917;-74
2023/02/15 01:12:58;;;;;;;;;;;;;;;8.13;40.87;99973.97;4990070;28;19918;-73
2023/02/15 01:15:23;;;;;;;;;;;;;;;8.11;41.17;99976.63;4985474;28;19917;-75
2023/02/15 01:17:53;;;;;;;;;;;;;;;8.10;41.02;99971.50;4977186;28;19929;-75
2023/02/15 01:20:25;;;;;;;;;;;;;;;8.08;40.92;99971.59;4985663;28;20381;-74
2023/02/15 01:22:50;;;;;;;;;;;;;;;8.08;41.00;99968.97;4985423;28;20403;-75
2023/02/15 01:25:16;;;;;;;;;;;;;;;8.06;40.75;99968.19;4976446;28;19918;-75
2023/02/15 01:27:42;;;;;;;;;;;;;;;8.04;41.02;99967.41;4994474;28;19918;-74
2023/02/15 01:30:08;;;;;;;;;;;;;;;8.02;41.09;99971.84;4986101;28;19922;-75
2023/02/15 01:32:33;;;;;;;;;;;;;;;8.00;41.31;99973.69;4976413;28;19925;-75
2023/02/15 01:34:59;;;;;;;;;;;;;;;7.97;41.07;99973.84;4974203;28;20416;-75
2023/02/15 01:37:24;;;;;;;;;;;;;;;7.94;41.46;99974.81;4976932;28;19918;-76
2023/02/15 01:39:49;;;;;;;;;;;;;;;7.93;41.36;99977.47;4975986;28;19969;-76
2023/02/15 01:42:20;;;;;;;;;;;;;;;7.91;41.42;99981.91;4960570;28;20001;-75
2023/02/15 01:44:45;;;;;;;;;;;;;;;7.90;41.28;99977.63;4977058;28;19924;-76
2023/02/15 01:47:11;;;;;;;;;;;;;;;7.88;41.19;99980.28;4975906;28;19922;-76
2023/02/15 01:49:36;;;;;;;;;;;;;;;7.85;42.05;99988.22;4994025;28;19925;-75
2023/02/15 01:52:02;;;;;;;;;;;;;;;7.82;41.65;99985.75;4960299;28;19928;-74
2023/02/15 01:54:29;;;;;;;;;;;;;;;7.81;41.51;99988.44;4975265;28;20345;-76
2023/02/15 01:56:54;;;;;;;;;;;;;;;7.76;41.84;99989.50;4976680;28;19925;-75
2023/02/15 01:59:20;;;;;;;;;;;;;;;7.75;41.69;99987.78;4976558;28;19969;-76
2023/02/15 02:01:46;;;;;;;;;;;;;;;7.76;41.42;99986.91;4974938;28;19918;-76
2023/02/15 02:04:18;;;;;;;;;;;;;;;7.77;41.31;99985.97;4976551;28;19925;-76
2023/02/15 02:06:44;;;;;;;;;;;;;;;7.77;41.80;99988.56;4974482;28;19918;-76
2023/02/15 02:09:10;;;;;;;;;;;;;;;7.76;41.27;99979.09;4975154;28;19922;-75
2023/02/15 02:11:35;;;;;;;;;;;;;;;7.76;41.26;99994.69;4993634;28;19918;-75
2023/02/15 02:14:00;;;;;;;;;;;;;;;7.74;41.83;99996.50;4976276;28;19928;-75
2023/02/15 02:16:28;;;;;;;;;;;;;;;7.71;41.87;99994.03;4974560;28;19941;-75
2023/02/15 02:19:14;;;;;;;;;;;;;;;7.69;41.88;99995.84;4993541;28;19926;-75
2023/02/15 02:21:42;;;;;;;;;;;;;;;7.65;42.10;99989.09;4973166;28;19922;-74
2023/02/15 02:24:13;;;;;;;;;;;;;;;7.59;42.07;99986.75;4993837;28;19925;-74
2023/02/15 02:27:02;;;;;;;;;;;;;;;7.56;41.96;99984.34;4991098;28;20024;-74
2023/02/15 02:29:37;;;;;;;;;;;;;;;7.51;41.73;99988.88;4958224;28;19929;-74
2023/02/15 02:32:21;;;;;;;;;;;;;;;7.49;42.09;99990.69;4991146;28;19921;-74
2023/02/15 02:34:49;;;;;;;;;;;;;;;7.46;41.67;99994.25;4973854;28;19925;-74
2023/02/15 02:37:23;;;;;;;;;;;;;;;7.42;42.30;99998.75;4975763;28;19937;-74
2023/02/15 02:40:07;;;;;;;;;;;;;;;7.39;42.20;99995.44;4959306;28;19977;-75
2023/02/15 02:42:39;;;;;;;;;;;;;;;7.33;42.12;99995.72;4992311;28;19929;-75
2023/02/15 02:45:18;;;;;;;;;;;;;;;7.25;42.68;100002.06;4991095;28;20389;-74
2023/02/15 02:47:51;;;;;;;;;;;;;;;7.17;42.68;99993.75;4991011;28;20392;-75
2023/02/15 02:50:23;;;;;;;;;;;;;;;7.12;42.79;99998.31;4975665;28;19922;-75
2023/02/15 02:52:49;;;;;;;;;;;;;;;7.09;42.98;100002.78;4975745;28;19929;-75
2023/02/15 02:55:17;;;;;;;;;;;;;;;7.04;42.85;99998.63;4967493;28;19925;-75
2023/02/15 02:57:46;;;;;;;;;;;;;;;7.00;42.59;100004.84;4973117;28;19918;-75
2023/02/15 03:00:12;;;;;;;;;;;;;;;6.95;42.96;100006.78;4975577;28;19921;-74
2023/02/15 03:02:38;;;;;;;;;;;;;;;6.92;43.24;100012.09;4982518;28;19918;-74
2023/02/15 03:05:04;;;;;;;;;;;;;;;6.91;43.17;100015.63;4973267;28;19918;-76
2023/02/15 03:07:30;;;;;;;;;;;;;;;6.91;42.93;100015.63;4959134;28;19945;-76
2023/02/15 03:09:56;;;;;;;;;;;;;;;6.87;42.88;100009.69;4974760;28;19918;-76
2023/02/15 03:12:23;;;;;;;;;;;;;;;6.82;43.35;100001.25;4967078;28;19968;-76
2023/02/15 03:14:50;;;;;;;;;;;;;;;6.77;42.82;100005.78;4974830;28;19924;-76
2023/02/15 03:17:15;;;;;;;;;;;;;;;6.74;42.96;100005.06;4983314;28;20009;-77
2023/02/15 03:19:40;;;;;;;;;;;;;;;6.67;43.11;100007.91;4972899;28;20020;-77
2023/02/15 03:22:10;;;;;;;;;;;;;;;6.63;42.95;100008.94;4974994;28;19971;-75
2023/02/15 03:24:43;;;;;;;;;;;;;;;6.61;43.49;100010.75;4974478;28;19926;-76
2023/02/15 03:27:10;;;;;;;;;;;;;;;6.58;43.07;100010.88;4973745;28;19925;-75
2023/02/15 03:29:35;;;;;;;;;;;;;;;6.56;43.50;100009.22;4958552;28;19991;-74
2023/02/15 03:32:01;;;;;;;;;;;;;;;6.52;43.59;100009.34;4974875;28;20797;-75
2023/02/15 03:34:27;;;;;;;;;;;;;;;6.51;43.87;100006.81;4983032;28;19918;-74
2023/02/15 03:37:01;;;;;;;;;;;;;;;6.52;43.36;100011.09;4958611;28;20045;-75
2023/02/15 03:39:30;;;;;;;;;;;;;;;6.51;43.83;100009.41;4990338;28;20423;-74
2023/02/15 03:42:01;;;;;;;;;;;;;;;6.51;43.95;100010.28;4974355;28;19926;-74
2023/02/15 03:44:30;;;;;;;;;;;;;;;6.50;43.81;100011.16;4975028;28;20402;-75
2023/02/15 03:46:58;;;;;;;;;;;;;;;6.51;43.63;100017.19;4992032;28;20037;-75
2023/02/15 03:49:28;;;;;;;;;;;;;;;6.49;44.09;100022.44;4975843;28;19921;-75
2023/02/15 03:51:54;;;;;;;;;;;;;;;6.48;44.14;100025.97;4976130;28;19976;-74
2023/02/15 04:02:53;;;;;;;;;;;;;;;6.40;44.29;100051.31;4993655;28;20301;-73
2023/02/15 04:05:19;;;;;;;;;;;;;;;6.39;44.20;100053.97;4976052;28;19914;-73
2023/02/15 04:07:44;;;;;;;;;;;;;;;6.42;44.12;100048.66;4993710;28;19918;-74
2023/02/15 04:12:53;;;;;;;;;;;;;;;6.43;44.26;100058.16;4993907;28;19933;-75
2023/02/15 04:18:03;;;;;;;;;;;;;;;6.46;43.69;100063.22;4993348;28;19925;-75
2023/02/15 04:25:56;;;;;;;;;;;;;;;6.49;43.46;100065.69;4993390;28;19940;-73
2023/02/15 04:28:21;;;;;;;;;;;;;;;6.49;43.83;100069.13;4993285;28;20377;-73
2023/02/15 04:30:47;;;;;;;;;;;;;;;6.51;43.97;100076.84;4975892;28;19949;-73
2023/02/15 04:33:12;;;;;;;;;;;;;;;6.52;44.17;100078.56;4976186;28;19921;-73
2023/02/15 04:35:37;;;;;;;;;;;;;;;6.54;44.32;100079.34;4975799;28;19924;-73
2023/02/15 04:38:03;;;;;;;;;;;;;;;6.55;43.73;100083.63;4993196;28;19917;-73
2023/02/15 04:40:28;;;;;;;;;;;;;;;6.56;44.10;100087.91;4975658;28;20033;-73
2023/02/15 04:42:53;;;;;;;;;;;;;;;6.55;44.00;100083.63;4975892;28;19918;-74
2023/02/15 04:45:19;;;;;;;;;;;;;;;6.54;43.95;100079.34;4976010;28;19922;-73
2023/02/15 04:47:44;;;;;;;;;;;;;;;6.50;43.59;100081.22;4975634;28;19922;-72
2023/02/15 04:50:09;;;;;;;;;;;;;;;6.48;43.65;100082.16;4975504;28;19922;-73
2023/02/15 04:52:35;;;;;;;;;;;;;;;6.47;43.81;100090.88;4959844;28;20353;-73
2023/02/15 04:55:00;;;;;;;;;;;;;;;6.46;44.38;100099.53;4976054;28;19940;-72
2023/02/15 04:57:26;;;;;;;;;;;;;;;6.47;43.96;100098.66;4975659;28;20002;-72
2023/02/15 04:59:51;;;;;;;;;;;;;;;6.46;44.05;100105.56;4993379;28;20021;-72
2023/02/15 05:02:16;;;;;;;;;;;;;;;6.44;43.66;100104.78;4974027;28;19918;-72
2023/02/15 05:04:41;;;;;;;;;;;;;;;6.39;44.28;100101.53;4973434;28;20010;-71
2023/02/15 05:07:07;;;;;;;;;;;;;;;6.81;58.32;100113.75;4976180;28;19941;-73
2023/02/15 05:09:32;;;;;;;;;;;;;;;7.14;64.03;100113.34;4976646;28;19961;-73
2023/02/15 05:11:57;;;;;;;;;;;;;;;7.21;54.87;100114.78;4956436;28;20372;-74
2023/02/15 05:14:23;;;;;;;;;;;;;;;7.16;53.28;100118.47;4955943;28;20026;-76
2023/02/15 05:16:48;;;;;;;;;;;;;;;7.13;51.48;100126.38;5007799;28;20403;-74
2023/02/15 05:19:13;;;;;;;;;;;;;;;7.12;50.19;100129.91;4994666;28;19918;-78
2023/02/15 05:21:39;;;;;;;;;;;;;;;7.11;49.91;100123.00;5012835;28;20316;-76
2023/02/15 05:28:19;;;;;;;;;;;;;;;7.11;49.48;100128.19;4978579;28;19921;-72
2023/02/15 05:29:33;;;;;;;;;;;;;;;7.46;62.40;100141.53;5000620;28;20017;-74
2023/02/15 05:31:59;;;;;;;;;;;;;;;7.65;61.80;100142.44;4997782;28;19968;-78
2023/02/15 05:34:24;;;;;;;;;;;;;;;7.60;55.49;100140.03;5015503;28;19948;-74
2023/02/15 05:36:49;;;;;;;;;;;;;;;7.56;54.10;100145.44;4998054;28;19925;-74
2023/02/15 05:39:15;;;;;;;;;;;;;;;7.47;53.44;100140.63;4998220;28;20372;-75
2023/02/15 05:41:40;;;;;;;;;;;;;;;7.72;62.96;100154.28;4985396;28;20012;-75
2023/02/15 05:44:05;;;;;;;;;;;;;;;7.76;57.48;100147.19;4997611;28;19924;-74
2023/02/15 05:46:31;;;;;;;;;;;;;;;7.86;55.41;100148.50;4967282;28;19922;-77
2023/02/15 05:48:56;;;;;;;;;;;;;;;8.21;52.76;100147.91;4974373;28;20370;-76
2023/02/15 05:51:21;;;;;;;;;;;;;;;8.47;57.35;100157.16;4974418;28;19922;-79
2023/02/15 05:53:46;;;;;;;;;;;;;;;8.41;47.70;100160.88;4974041;28;19922;-70
2023/02/15 05:56:12;;;;;;;;;;;;;;;8.13;45.83;100166.44;4973933;28;19970;-72
2023/02/15 05:58:38;;;;;;;;;;;;;;;7.90;48.03;100168.25;4974268;28;20387;-75
2023/02/15 06:01:09;;;;;;;;;;;;;;;7.90;47.94;100173.44;4962170;28;19996;-76
2023/02/15 06:03:34;;;;;;;;;;;;;;;7.95;49.80;100178.47;4988130;28;20020;-80
2023/02/15 06:06:00;;;;;;;;;;;;;;;7.96;49.80;100173.19;4977761;28;20008;-84
2023/02/15 06:08:25;;;;;;;;;;;;;;;7.97;50.10;100172.28;4993884;28;19917;-75
2023/02/15 06:10:50;;;;;;;;;;;;;;;8.14;59.79;100179.38;4979618;28;19983;-74
2023/02/15 06:13:16;;;;;;;;;;;;;;;8.44;61.82;100180.72;4980993;28;19918;-74
2023/02/15 06:15:41;;;;;;;;;;;;;;;8.73;64.74;100184.63;4977484;28;19968;-76
2023/02/15 06:18:06;;;;;;;;;;;;;;;8.74;56.24;100191.50;4977356;28;19969;-78
2023/02/15 06:20:32;;;;;;;;;;;;;;;8.70;54.69;100187.38;4976800;28;19917;-74
2023/02/15 06:22:57;;;;;;;;;;;;;;;8.70;53.35;100195.19;4976815;28;19918;-75
2023/02/15 06:25:24;;;;;;;;;;;;;;;8.68;52.41;100189.19;4994276;28;20403;-76
2023/02/15 06:27:49;;;;;;;;;;;;;;;8.67;51.46;100188.34;4992767;28;19929;-76
2023/02/15 06:30:14;;;;;;;;;;;;;;;8.70;50.22;100189.97;4976727;28;20313;-68
2023/02/15 06:32:40;;;;;;;;;;;;;;;9.25;66.49;100191.78;4994353;28;19929;-81
2023/02/15 06:35:06;;;;;;;;;;;;;;;9.36;58.06;100196.47;4993118;28;20021;-76
2023/02/15 06:37:31;;;;;;;;;;;;;;;9.41;55.47;100192.72;4987159;28;19972;-75
2023/02/15 06:39:57;;;;;;;;;;;;;;;9.47;52.63;100186.41;4994695;28;19918;-77
2023/02/15 06:42:22;;;;;;;;;;;;;;;9.54;51.32;100182.56;4994093;28;19921;-77
2023/02/15 06:44:48;;;;;;;;;;;;;;;9.60;49.48;100182.25;4961271;28;19918;-83
2023/02/15 06:47:13;;;;;;;;;;;;;;;9.68;47.97;100192.31;4993768;28;20459;-79
2023/02/15 06:49:38;;;;;;;;;;;;;;;9.77;47.33;100197.06;4959807;28;19925;-84
2023/02/15 06:52:04;;;;;;;;;;;;;;;9.81;46.83;100199.53;4959789;28;19955;-78
2023/02/15 06:54:29;;;;;;;;;;;;;;;9.87;46.11;100188.78;4958795;28;20004;-77
2023/02/15 06:56:54;;;;;;;;;;;;;;;9.99;45.47;100190.75;4981326;28;19957;-77
2023/02/15 06:59:20;;;;;;;;;;;;;;;10.26;44.58;100193.75;4983257;28;19917;-77
2023/02/15 07:01:45;;;;;;;;;;;;;;;10.81;43.72;100195.22;4982267;28;19924;-77
2023/02/15 07:04:11;;;;;;;;;;;;;;;11.39;42.32;100203.41;4975715;28;20308;-80
2023/02/15 07:06:37;;;;;;;;;;;;;;;11.59;42.00;100200.50;4992872;28;19967;-78
2023/02/15 07:09:04;;;;;;;;;;;;;;;11.53;41.47;100202.63;4980806;28;20024;-76
2023/02/15 07:14:13;;;;;;;;;;;;;;;11.44;40.11;100200.53;4987174;28;19937;-78
2023/02/15 07:16:38;;;;;;;;;;;;;;;11.37;39.74;100198.25;4981701;28;20405;-79
2023/02/15 07:19:03;;;;;;;;;;;;;;;11.31;39.73;100200.38;4975431;28;20399;-79
2023/02/15 07:21:29;;;;;;;;;;;;;;;11.22;39.53;100199.94;4960031;28;19921;-82
2023/02/15 07:23:56;;;;;;;;;;;;;;;11.12;39.26;100198.78;4960717;28;19987;-78
2023/02/15 07:26:21;;;;;;;;;;;;;;;11.07;39.50;100197.34;4992455;28;20031;-78
2023/02/15 07:28:46;;;;;;;;;;;;;;;11.11;51.11;100198.88;4955865;28;20405;-76
2023/02/15 07:31:11;;;;;;;;;;;;;;;11.22;50.34;100205.16;4949381;28;20308;-78
2023/02/15 07:33:37;;;;;;;;;;;;;;;11.25;46.00;100195.50;4965918;28;19997;-79
2023/02/15 07:36:03;;;;;;;;;;;;;;;11.24;44.36;100197.25;4964218;28;19958;-78
2023/02/15 07:38:32;;;;;;;;;;;;;;;11.28;46.59;100195.31;4953633;28;20313;-75
2023/02/15 07:40:58;;;;;;;;;;;;;;;11.66;58.90;100205.38;4946265;28;19945;-75
2023/02/15 07:43:23;;;;;;;;;;;;;;;11.92;62.81;100204.75;4950044;28;20385;-77
2023/02/15 07:45:48;;;;;;;;;;;;;;;12.26;66.01;100204.53;4963045;28;20088;-73
2023/02/15 07:48:14;;;;;;;;;;;;;;;12.47;65.39;100202.38;4965022;28;20057;-77
2023/02/15 07:50:39;;;;;;;;;;;;;;;12.55;64.11;100199.31;4963732;28;20413;-77
2023/02/15 07:53:04;;;;;;;;;;;;;;;12.67;64.29;100204.63;4960890;28;19929;-74
2023/02/15 07:55:30;;;;;;;;;;;;;;;12.83;63.40;100204.50;4962449;28;19918;-73
2023/02/15 07:57:55;;;;;;;;;;;;;;;13.27;59.17;100201.81;4962865;28;20414;-76
2023/02/15 08:00:24;;;;;;;;;;;;;;;13.69;56.89;100213.09;4964406;28;19961;-73
2023/02/15 08:05:34;;;;;;;;;;;;;;;14.05;52.28;100207.19;4977851;28;20416;-73
2023/02/15 08:07:59;;;;;;;;;;;;;;;14.46;50.72;100206.16;4953904;28;19926;-75
2023/02/15 08:11:25;;;;;;;;;;;;;;;14.77;48.12;100201.41;4963245;28;19922;-74
2023/02/15 08:13:10;;;;;;;;;;;;;;;15.13;43.55;100207.66;4964443;28;19922;-74
2023/02/15 08:15:35;;;;;;;;;;;;;;;15.45;41.15;100208.88;4962573;28;20393;-74
2023/02/15 08:18:00;;;;;;;;;;;;;;;15.52;38.56;100208.31;4981559;28;20452;-75
2023/02/15 08:20:26;;;;;;;;;;;;;;;15.76;37.43;100209.25;4963232;28;19918;-72
2023/02/15 08:22:51;;;;;;;;;;;;;;;16.22;47.56;100206.63;4965003;28;19925;-71
2023/02/15 08:25:17;;;;;;;;;;;;;;;16.41;43.16;100202.59;4965559;28;19922;-73
2023/02/15 08:27:42;;;;;;;;;;;;;;;16.45;34.50;100199.59;4963053;28;19918;-74
2023/02/15 08:30:07;;;;;;;;;;;;;;;16.93;32.50;100208.25;4939655;29;20368;-72
2023/02/15 08:32:33;;;;;;;;;;;;;;;17.54;31.22;100211.19;4936550;29;19925;-74
2023/02/15 08:34:58;;;;;;;;;;;;;;;18.19;30.29;100207.66;4939067;28;19926;-74
2023/02/15 08:37:25;;;;;;;;;;;;;;;18.93;28.23;100209.28;4957185;28;20373;-77
2023/02/15 08:39:51;;;;;;;;;;;;;;;19.51;26.46;100209.38;4945351;28;19944;-73
2023/02/15 08:42:16;;;;;;;;;;;;;;;20.05;25.50;100211.56;4968832;28;19922;-73
2023/02/15 08:44:42;;;;;;;;;;;;;;;20.57;29.51;100208.50;4941718;28;19929;-72
2023/02/15 08:47:07;;;;;;;;;;;;;;;20.86;25.70;100207.56;4961903;28;20008;-74
2023/02/15 08:49:32;;;;;;;;;;;;;;;20.84;22.27;100201.56;4980503;28;19918;-76
2023/02/15 08:51:58;;;;;;;;;;;;;;;20.84;21.60;100194.47;4980528;28;20360;-74
2023/02/15 08:54:23;;;;;;;;;;;;;;;20.77;21.52;100199.50;4965082;28;19918;-73
2023/02/15 08:56:48;;;;;;;;;;;;;;;20.85;20.95;100198.75;4943612;28;19977;-75
2023/02/15 08:59:15;;;;;;;;;;;;;;;21.10;31.17;100201.72;4962541;28;19925;-68
2023/02/15 09:01:40;;;;;;;;;;;;;;;21.27;26.20;100200.88;4983562;28;20301;-73
2023/02/15 09:04:08;;;;;;;;;;;;;;;21.36;23.44;100193.00;4966760;28;19921;-71
2023/02/15 09:06:33;;;;;;;;;;;;;;;21.43;20.64;100186.94;4951112;28;20424;-72
2023/02/15 09:08:59;;;;;;;;;;;;;;;21.50;20.21;100195.16;4968309;28;20009;-71
2023/02/15 09:11:25;;;;;;;;;;;;;;;21.52;19.50;100187.03;4980276;28;20336;-72
2023/02/15 09:13:53;;;;;;;;;;;;;;;21.67;24.90;100193.47;4952990;28;20404;-68
2023/02/15 09:16:19;;;;;;;;;;;;;;;21.76;30.28;100199.69;4988104;28;19918;-71
2023/02/15 09:18:44;;;;;;;;;;;;;;;21.83;24.00;100184.78;4961513;28;19928;-71
2023/02/15 09:21:10;;;;;;;;;;;;;;;21.77;21.42;100188.91;4950023;28;19923;-73
2023/02/15 09:23:36;;;;;;;;;;;;;;;22.01;19.92;100180.28;4966069;28;19919;-69
2023/02/15 09:26:03;;;;;;;;;;;;;;;21.90;19.66;100183.19;4985319;28;19925;-68
2023/02/15 09:28:28;;;;;;;;;;;;;;;22.05;24.12;100186.13;4965917;28;20449;-68
2023/02/15 09:30:53;;;;;;;;;;;;;;;22.33;21.12;100178.84;4992367;28;20012;-71
2023/02/15 09:33:18;;;;;;;;;;;;;;;22.67;18.70;100188.63;4959949;28;20514;-70
2023/02/15 09:35:44;;;;;;;;;;;;;;;23.23;18.15;100188.16;4976083;28;20381;-72
2023/02/15 09:38:11;;;;;;;;;;;;;;;23.52;17.54;100177.03;4974549;28;19981;-73
2023/02/15 09:40:40;;;;;;;;;;;;;;;23.38;17.65;100178.50;4960394;28;19922;-75
2023/02/15 09:43:06;;;;;;;;;;;;;;;23.29;17.63;100172.38;4957330;28;19918;-72
2023/02/15 09:45:41;;;;;;;;;;;;;;;23.05;18.22;100175.75;4994579;28;19918;-72
2023/02/15 09:48:13;;;;;;;;;;;;;;;23.03;20.81;100175.09;4981632;28;19926;-73
2023/02/15 09:50:38;;;;;;;;;;;;;;;22.74;18.80;100170.22;4993017;28;20428;-73
2023/02/15 09:53:18;;;;;;;;;;;;;;;22.32;18.24;100168.34;4978511;28;19953;-72
2023/02/15 09:55:48;;;;;;;;;;;;;;;22.27;18.50;100171.44;4975036;28;20340;-74
2023/02/15 09:58:27;;;;;;;;;;;;;;;22.34;22.28;100163.69;4977694;28;19922;-72
2023/02/15 10:00:56;;;;;;;;;;;;;;;22.27;19.04;100162.66;4958402;28;20385;-71
2023/02/15 10:03:36;;;;;;;;;;;;;;;22.00;19.03;100151.19;4975629;28;19926;-71
2023/02/15 10:06:05;;;;;;;;;;;;;;;21.78;18.78;100152.53;4974495;28;19926;-70
2023/02/15 10:08:40;;;;;;;;;;;;;;;21.68;19.42;100148.16;4965053;28;19925;-70
2023/02/15 10:11:39;;;;;;;;;;;;;;;21.42;19.15;100153.38;4958522;28;19926;-72
2023/02/15 10:14:07;;;;;;;;;;;;;;;21.06;19.65;100145.44;4976422;28;20361;-74
2023/02/15 10:16:51;;;;;;;;;;;;;;;20.68;19.75;100144.66;4975979;28;19918;-70
2023/02/15 10:19:20;;;;;;;;;;;;;;;20.09;20.68;100130.81;4994448;28;20373;-75
2023/02/15 10:21:48;;;;;;;;;;;;;;;20.10;20.35;100132.47;4977484;28;19918;-76
2023/02/15 10:24:32;;;;;;;;;;;;;;;19.95;20.79;100115.38;4975874;28;19917;-71
2023/02/15 10:27:04;;;;;;;;;;;;;;;19.76;21.10;100113.56;4974527;28;19918;-72
2023/02/15 10:29:29;;;;;;;;;;;;;;;20.12;20.65;100113.78;4976794;28;19926;-71
2023/02/15 10:32:24;;;;;;;;;;;;;;;20.29;20.53;100115.66;4994109;28;20109;-71
2023/02/15 10:35:04;;;;;;;;;;;;;;;20.34;20.69;100107.28;4972583;28;19926;-77
2023/02/15 10:37:35;;;;;;;;;;;;;;;20.07;20.45;100103.59;4956672;28;20009;-73
2023/02/15 10:40:00;;;;;;;;;;;;;;;19.82;20.83;100107.72;4972236;28;20040;-72
2023/02/15 10:42:44;;;;;;;;;;;;;;;19.25;21.50;100105.81;4972629;28;19954;-73
2023/02/15 10:45:12;;;;;;;;;;;;;;;19.31;21.49;100093.84;4972301;28;20101;-72
2023/02/15 10:47:56;;;;;;;;;;;;;;;19.59;21.39;100094.75;4971800;28;20016;-72
2023/02/15 10:50:33;;;;;;;;;;;;;;;19.41;21.19;100089.34;4971996;28;19922;-74
2023/02/15 10:53:01;;;;;;;;;;;;;;;18.88;21.62;100084.47;4972565;28;19980;-71
2023/02/15 10:55:31;;;;;;;;;;;;;;;18.40;21.80;100093.97;4972151;28;19918;-71
2023/02/15 10:57:59;;;;;;;;;;;;;;;17.96;22.48;100085.44;4972079;28;20370;-72
2023/02/15 11:00:28;;;;;;;;;;;;;;;17.78;22.92;100082.53;4972238;28;20349;-71
2023/02/15 11:02:54;;;;;;;;;;;;;;;18.02;22.62;100080.44;4972142;28;19966;-71
2023/02/15 11:05:57;;;;;;;;;;;;;;;18.06;22.84;100075.75;4971841;28;19945;-73
2023/02/15 11:08:23;;;;;;;;;;;;;;;18.22;23.27;100081.38;4914511;29;19926;-72
2023/02/15 11:10:52;;;;;;;;;;;;;;;17.99;22.99;100078.06;4905432;29;19918;-73
2023/02/15 11:13:19;;;;;;;;;;;;;;;18.00;23.07;100074.47;4901065;29;20466;-72
2023/02/15 11:15:44;;;;;;;;;;;;;;;18.07;23.42;100077.41;4917622;29;20387;-71
2023/02/15 11:18:11;;;;;;;;;;;;;;;18.05;22.91;100076.72;4917185;29;19923;-72
2023/02/15 11:20:38;;;;;;;;;;;;;;;17.70;23.66;100070.00;4917853;29;19923;-73
2023/02/15 11:23:07;;;;;;;;;;;;;;;17.64;23.97;100067.88;4917739;29;19926;-71
2023/02/15 11:25:34;;;;;;;;;;;;;;;17.49;23.80;100068.19;4917282;29;19919;-71
2023/02/15 11:27:59;;;;;;;;;;;;;;;17.72;23.80;100073.31;4901667;29;19985;-72
2023/02/15 11:30:27;;;;;;;;;;;;;;;17.61;23.72;100076.88;4917298;29;19982;-73
2023/02/15 11:32:58;;;;;;;;;;;;;;;17.32;23.90;100072.25;4901658;29;19927;-72
2023/02/15 11:35:38;;;;;;;;;;;;;;;17.04;24.25;100070.22;4916883;29;19923;-70
2023/02/15 11:38:12;;;;;;;;;;;;;;;16.77;24.44;100063.56;4921349;28;19923;-71
2023/02/15 11:40:44;;;;;;;;;;;;;;;16.44;24.99;100054.75;4975038;28;19918;-72
2023/02/15 11:43:26;;;;;;;;;;;;;;;15.96;25.63;100065.59;4976102;28;19917;-71
2023/02/15 11:45:52;;;;;;;;;;;;;;;16.11;25.97;100056.47;4975073;28;19922;-72
2023/02/15 11:48:17;;;;;;;;;;;;;;;16.06;26.01;100051.56;4975510;28;20451;-71
2023/02/15 11:50:43;;;;;;;;;;;;;;;15.89;26.07;100052.03;4975504;28;19963;-71
2023/02/15 11:53:11;;;;;;;;;;;;;;;15.79;26.21;100051.09;4974577;28;19922;-71
2023/02/15 11:55:36;;;;;;;;;;;;;;;15.66;26.76;100043.28;4975196;28;19917;-70
2023/02/15 11:58:20;;;;;;;;;;;;;;;15.81;26.38;100033.38;4974802;28;19924;-71
2023/02/15 12:00:46;;;;;;;;;;;;;;;15.61;26.77;100038.34;4974387;28;19939;-74
2023/02/15 12:03:26;;;;;;;;;;;;;;;15.63;27.08;100036.44;4972672;28;19922;-69
2023/02/15 12:05:53;;;;;;;;;;;;;;;15.57;27.30;100026.38;4972118;28;19930;-71
2023/02/15 12:08:19;;;;;;;;;;;;;;;15.64;33.06;100019.69;4991823;28;19972;-72
2023/02/15 12:10:58;;;;;;;;;;;;;;;15.95;40.10;100021.75;4958281;28;19918;-72
2023/02/15 12:13:24;;;;;;;;;;;;;;;16.10;35.15;100021.41;4958580;28;19922;-78
2023/02/15 12:15:53;;;;;;;;;;;;;;;16.31;39.27;100014.56;4973579;28;19929;-73
2023/02/15 12:18:38;;;;;;;;;;;;;;;16.45;36.80;100020.38;4971309;28;19926;-75
2023/02/15 12:21:07;;;;;;;;;;;;;;;16.63;36.56;100019.84;4990788;28;19925;-69
2023/02/15 12:23:33;;;;;;;;;;;;;;;16.55;30.58;100019.63;4990691;28;19922;-71
2023/02/15 12:25:58;;;;;;;;;;;;;;;16.36;30.05;100018.47;4973948;28;20352;-69
2023/02/15 12:28:23;;;;;;;;;;;;;;;16.23;30.03;100015.16;4973646;28;19941;-70
2023/02/15 12:30:49;;;;;;;;;;;;;;;16.22;31.27;100016.09;4973960;28;19959;-69
2023/02/15 12:33:36;;;;;;;;;;;;;;;16.04;31.34;100016.59;4973777;28;20419;-69
2023/02/15 12:36:03;;;;;;;;;;;;;;;15.94;37.77;100010.41;4975499;28;19972;-71
2023/02/15 12:38:29;;;;;;;;;;;;;;;15.85;36.22;100005.84;4959603;28;19918;-75
2023/02/15 12:40:59;;;;;;;;;;;;;;;15.76;35.74;100002.09;4978519;28;19918;-71
2023/02/15 12:43:34;;;;;;;;;;;;;;;15.71;33.30;99999.81;4978977;28;19953;-71
2023/02/15 12:46:19;;;;;;;;;;;;;;;15.76;32.10;100003.91;4996592;28;20035;-70
2023/02/15 12:48:45;;;;;;;;;;;;;;;15.72;30.96;100005.94;4976595;28;19925;-75
2023/02/15 12:51:13;;;;;;;;;;;;;;;15.57;36.68;100005.31;4994740;28;19972;-72
2023/02/15 12:53:38;;;;;;;;;;;;;;;15.52;33.49;100002.22;4993306;28;19976;-73
2023/02/15 12:56:05;;;;;;;;;;;;;;;15.46;32.09;100000.03;4995129;28;20344;-71
2023/02/15 12:58:31;;;;;;;;;;;;;;;15.47;31.32;100001.72;4961730;28;19926;-71
2023/02/15 13:01:16;;;;;;;;;;;;;;;15.48;36.50;100006.03;4977368;28;19914;-76
2023/02/15 13:03:53;;;;;;;;;;;;;;;15.41;33.72;100008.28;4994227;28;19925;-76
2023/02/15 13:06:19;;;;;;;;;;;;;;;15.37;32.14;100005.06;4977954;28;19918;-71
2023/02/15 13:08:48;;;;;;;;;;;;;;;15.32;31.58;99994.06;4985187;28;19918;-74
2023/02/15 13:11:15;;;;;;;;;;;;;;;15.27;32.40;99993.53;4995321;28;20004;-83
2023/02/15 13:13:56;;;;;;;;;;;;;;;15.44;46.21;99992.28;4972897;28;19930;-75